createdAt,value
2019-01-12T00:00:12.969Z,52.39
2019-01-12T00:00:44.562Z,52.31
2019-01-12T00:01:16.153Z,52.33
2019-01-12T00:01:47.745Z,52.38
2019-01-12T00:02:19.346Z,52.49
2019-01-12T00:02:50.929Z,52.49
2019-01-12T00:03:22.563Z,52.65
2019-01-12T00:03:54.158Z,52.69
2019-01-12T00:04:25.760Z,52.76
2019-01-12T00:04:57.363Z,52.76
2019-01-12T00:05:28.953Z,52.73
2019-01-12T00:06:00.583Z,52.86
2019-01-12T00:06:32.164Z,52.85
2019-01-12T00:07:03.753Z,52.75
2019-01-12T00:07:35.359Z,53.14
2019-01-12T00:08:06.960Z,53.12
2019-01-12T00:08:38.582Z,53.30
2019-01-12T00:09:10.164Z,53.24
2019-01-12T00:09:41.771Z,53.19
2019-01-12T00:10:13.367Z,53.08
2019-01-12T00:10:44.967Z,53.16
2019-01-12T00:11:16.559Z,53.23
2019-01-12T00:11:48.154Z,53.29
2019-01-12T00:12:19.745Z,53.29
2019-01-12T00:12:51.343Z,53.39
2019-01-12T00:13:23.967Z,53.30
2019-01-12T00:13:55.563Z,53.29
2019-01-12T00:14:27.156Z,53.33
2019-01-12T00:14:58.750Z,53.37
2019-01-12T00:15:30.341Z,53.53
2019-01-12T00:16:01.947Z,53.50
2019-01-12T00:16:33.541Z,53.43
2019-01-12T00:17:05.148Z,53.44
2019-01-12T00:17:36.751Z,53.53
2019-01-12T00:18:08.356Z,53.50
2019-01-12T00:18:39.964Z,53.61
2019-01-12T00:19:11.587Z,53.52
2019-01-12T00:19:43.183Z,53.57
2019-01-12T00:20:14.777Z,53.51
2019-01-12T00:20:46.373Z,53.73
2019-01-12T00:21:17.956Z,53.81
2019-01-12T00:21:49.546Z,53.68
2019-01-12T00:22:21.151Z,53.86
2019-01-12T00:22:52.755Z,53.97
2019-01-12T00:23:24.345Z,53.79
2019-01-12T00:23:55.992Z,54.09
2019-01-12T00:24:31.453Z,54.21
2019-01-12T00:24:59.239Z,54.13
2019-01-12T00:25:30.830Z,54.27
2019-01-12T00:26:02.425Z,54.23
2019-01-12T00:26:34.013Z,54.08
2019-01-12T00:27:05.605Z,54.05
2019-01-12T00:27:37.211Z,54.08
2019-01-12T00:28:08.822Z,53.94
2019-01-12T00:28:40.406Z,53.98
2019-01-12T00:29:12.031Z,53.91
2019-01-12T00:29:43.631Z,54.02
2019-01-12T00:30:15.235Z,54.04
2019-01-12T00:30:46.832Z,54.04
2019-01-12T00:31:18.443Z,54.10
2019-01-12T00:31:50.050Z,54.11
2019-01-12T00:32:21.632Z,54.12
2019-01-12T00:32:53.231Z,54.24
2019-01-12T00:33:24.825Z,54.46
2019-01-12T00:33:56.441Z,54.34
2019-01-12T00:34:28.043Z,54.21
2019-01-12T00:34:59.652Z,54.27
2019-01-12T00:35:31.245Z,54.28
2019-01-12T00:36:02.852Z,54.29
2019-01-12T00:36:34.459Z,54.33
2019-01-12T00:37:06.059Z,54.38
2019-01-12T00:37:37.696Z,54.35
2019-01-12T00:38:09.299Z,54.42
2019-01-12T00:38:40.893Z,54.48
2019-01-12T00:39:12.514Z,54.60
2019-01-12T00:39:44.111Z,54.69
2019-01-12T00:40:15.701Z,54.50
2019-01-12T00:40:47.284Z,54.52
2019-01-12T00:41:18.888Z,54.59
2019-01-12T00:41:50.481Z,54.53
2019-01-12T00:42:22.077Z,54.54
2019-01-12T00:42:53.674Z,54.40
2019-01-12T00:43:25.269Z,54.49
2019-01-12T00:43:56.858Z,54.55
2019-01-12T00:44:28.486Z,54.63
2019-01-12T00:45:00.152Z,54.47
2019-01-12T00:45:31.747Z,54.52
2019-01-12T00:46:03.338Z,54.46
2019-01-12T00:46:34.941Z,54.50
2019-01-12T00:47:06.543Z,54.57
2019-01-12T00:47:38.141Z,54.61
2019-01-12T00:48:09.735Z,54.62
2019-01-12T00:48:41.338Z,54.67
2019-01-12T00:49:12.959Z,54.65
2019-01-12T00:49:44.557Z,54.76
2019-01-12T00:50:16.150Z,54.66
2019-01-12T00:50:47.756Z,54.66
2019-01-12T00:51:19.350Z,54.76
2019-01-12T00:51:50.955Z,54.79
2019-01-12T00:52:22.559Z,54.82
2019-01-12T00:52:54.163Z,54.86
2019-01-12T00:53:25.753Z,54.81
2019-01-12T00:53:57.353Z,54.71
2019-01-12T00:54:28.974Z,54.84
2019-01-12T00:55:00.578Z,54.81
2019-01-12T00:55:32.188Z,54.82
2019-01-12T00:56:03.795Z,54.90
2019-01-12T00:56:35.399Z,54.82
2019-01-12T00:57:07.020Z,54.92
2019-01-12T00:57:38.794Z,54.94
2019-01-12T00:58:10.393Z,54.87
2019-01-12T00:58:41.989Z,54.87
2019-01-12T00:59:13.640Z,54.81
2019-01-12T00:59:45.247Z,54.75
2019-01-12T01:00:16.859Z,54.99
2019-01-12T01:00:48.502Z,54.86
2019-01-12T01:01:20.107Z,54.83
2019-01-12T01:01:51.715Z,54.81
2019-01-12T01:02:23.299Z,54.99
2019-01-12T01:02:54.889Z,55.09
2019-01-12T01:03:26.483Z,54.96
2019-01-12T01:03:58.084Z,54.93
2019-01-12T01:04:29.692Z,55.04
2019-01-12T01:05:01.288Z,54.91
2019-01-12T01:05:32.896Z,55.01
2019-01-12T01:06:04.494Z,55.09
2019-01-12T01:06:36.089Z,55.05
2019-01-12T01:07:07.677Z,54.96
2019-01-12T01:07:39.251Z,54.96
2019-01-12T01:08:10.864Z,54.99
2019-01-12T01:08:42.462Z,55.10
2019-01-12T01:09:14.069Z,55.19
2019-01-12T01:09:45.693Z,55.05
2019-01-12T01:10:17.291Z,55.15
2019-01-12T01:10:48.890Z,55.30
2019-01-12T01:11:20.495Z,55.19
2019-01-12T01:11:52.089Z,55.31
2019-01-12T01:12:23.682Z,55.30
2019-01-12T01:12:55.279Z,55.32
2019-01-12T01:13:26.903Z,55.29
2019-01-12T01:13:58.497Z,55.40
2019-01-12T01:14:30.104Z,55.54
2019-01-12T01:15:01.723Z,55.46
2019-01-12T01:15:33.303Z,55.56
2019-01-12T01:16:04.896Z,55.68
2019-01-12T01:16:36.489Z,55.67
2019-01-12T01:17:08.087Z,55.91
2019-01-12T01:17:39.682Z,55.97
2019-01-12T01:18:11.294Z,55.84
2019-01-12T01:18:42.895Z,56.05
2019-01-12T01:19:14.561Z,56.23
2019-01-12T01:19:46.160Z,56.54
2019-01-12T01:20:17.759Z,56.42
2019-01-12T01:20:49.609Z,56.46
2019-01-12T01:21:21.211Z,56.42
2019-01-12T01:21:52.796Z,56.63
2019-01-12T01:22:24.396Z,56.67
2019-01-12T01:22:56.005Z,56.52
2019-01-12T01:23:27.620Z,56.56
2019-01-12T01:23:59.214Z,56.57
2019-01-12T01:24:30.949Z,56.67
2019-01-12T01:25:02.537Z,56.65
2019-01-12T01:25:34.149Z,56.57
2019-01-12T01:26:05.756Z,56.56
2019-01-12T01:26:37.359Z,56.60
2019-01-12T01:27:08.964Z,56.89
2019-01-12T01:27:40.557Z,56.94
2019-01-12T01:28:12.149Z,57.25
2019-01-12T01:28:43.758Z,56.88
2019-01-12T01:29:15.358Z,56.94
2019-01-12T01:29:46.964Z,57.41
2019-01-12T01:30:18.572Z,57.57
2019-01-12T01:30:50.170Z,57.25
2019-01-12T01:31:21.765Z,57.35
2019-01-12T01:31:53.357Z,57.99
2019-01-12T01:32:24.950Z,58.14
2019-01-12T01:32:56.542Z,58.10
2019-01-12T01:33:28.271Z,57.71
2019-01-12T01:33:59.807Z,57.65
2019-01-12T01:34:31.391Z,58.06
2019-01-12T01:35:03.010Z,58.33
2019-01-12T01:35:34.615Z,57.86
2019-01-12T01:36:06.209Z,57.44
2019-01-12T01:36:37.798Z,57.01
2019-01-12T01:37:09.390Z,56.59
2019-01-12T01:37:40.992Z,56.15
2019-01-12T01:38:12.577Z,55.95
2019-01-12T01:38:44.160Z,55.88
2019-01-12T01:39:15.749Z,56.15
2019-01-12T01:39:47.365Z,56.23
2019-01-12T01:40:18.961Z,56.33
2019-01-12T01:40:50.571Z,56.03
2019-01-12T01:41:22.180Z,56.40
2019-01-12T01:41:53.773Z,56.38
2019-01-12T01:42:25.380Z,56.30
2019-01-12T01:42:56.977Z,56.34
2019-01-12T01:43:28.566Z,56.22
2019-01-12T01:44:00.167Z,56.42
2019-01-12T01:44:31.776Z,56.47
2019-01-12T01:45:03.403Z,56.47
2019-01-12T01:45:34.998Z,56.47
2019-01-12T01:46:06.598Z,56.36
2019-01-12T01:46:38.199Z,56.52
2019-01-12T01:47:09.793Z,56.48
2019-01-12T01:47:41.372Z,56.32
2019-01-12T01:48:12.971Z,56.22
2019-01-12T01:48:44.585Z,56.24
2019-01-12T01:49:16.191Z,56.19
2019-01-12T01:49:47.823Z,56.06
2019-01-12T01:50:19.432Z,55.87
2019-01-12T01:50:51.040Z,56.05
2019-01-12T01:51:22.644Z,55.89
2019-01-12T01:51:54.248Z,56.08
2019-01-12T01:52:25.843Z,56.04
2019-01-12T01:52:57.459Z,56.03
2019-01-12T01:53:29.043Z,56.40
2019-01-12T01:54:00.633Z,56.71
2019-01-12T01:54:32.222Z,56.65
2019-01-12T01:55:03.851Z,56.63
2019-01-12T01:55:35.455Z,56.79
2019-01-12T01:56:07.053Z,56.63
2019-01-12T01:56:38.632Z,56.71
2019-01-12T01:57:10.235Z,56.89
2019-01-12T01:57:41.832Z,56.95
2019-01-12T01:58:13.412Z,56.88
2019-01-12T01:58:45.020Z,57.13
2019-01-12T01:59:16.613Z,57.04
2019-01-12T01:59:48.202Z,56.81
2019-01-12T02:00:19.827Z,57.03
2019-01-12T02:00:51.434Z,57.02
2019-01-12T02:01:23.034Z,56.95
2019-01-12T02:01:54.620Z,57.10
2019-01-12T02:02:26.200Z,56.87
2019-01-12T02:02:57.790Z,57.02
2019-01-12T02:03:29.367Z,57.21
2019-01-12T02:04:00.989Z,57.00
2019-01-12T02:04:32.577Z,57.07
2019-01-12T02:05:04.196Z,57.06
2019-01-12T02:05:35.799Z,56.90
2019-01-12T02:06:07.390Z,57.13
2019-01-12T02:06:38.982Z,56.94
2019-01-12T02:07:10.583Z,57.08
2019-01-12T02:07:42.191Z,56.93
2019-01-12T02:08:13.787Z,57.20
2019-01-12T02:08:45.392Z,57.10
2019-01-12T02:09:16.981Z,57.18
2019-01-12T02:09:48.590Z,57.33
2019-01-12T02:10:20.210Z,57.38
2019-01-12T02:10:51.815Z,57.25
2019-01-12T02:11:23.414Z,57.08
2019-01-12T02:11:54.992Z,57.00
2019-01-12T02:12:26.582Z,57.06
2019-01-12T02:12:58.183Z,56.61
2019-01-12T02:13:29.778Z,56.97
2019-01-12T02:14:01.359Z,56.89
2019-01-12T02:14:32.958Z,56.72
2019-01-12T02:15:04.562Z,57.04
2019-01-12T02:15:36.196Z,56.89
2019-01-12T02:16:07.789Z,56.88
2019-01-12T02:16:39.387Z,56.81
2019-01-12T02:17:10.981Z,56.93
2019-01-12T02:17:42.578Z,56.92
2019-01-12T02:18:14.169Z,57.14
2019-01-12T02:18:45.767Z,56.91
2019-01-12T02:19:17.361Z,57.20
2019-01-12T02:19:48.963Z,56.95
2019-01-12T02:20:20.591Z,57.00
2019-01-12T02:20:52.213Z,57.00
2019-01-12T02:21:23.806Z,57.11
2019-01-12T02:21:55.393Z,57.09
2019-01-12T02:22:26.976Z,57.01
2019-01-12T02:22:58.584Z,57.04
2019-01-12T02:23:30.191Z,56.97
2019-01-12T02:24:01.793Z,56.98
2019-01-12T02:24:33.386Z,57.05
2019-01-12T02:25:04.978Z,56.88
2019-01-12T02:25:36.608Z,56.93
2019-01-12T02:26:08.216Z,56.93
2019-01-12T02:26:39.809Z,56.93
2019-01-12T02:27:11.388Z,56.89
2019-01-12T02:27:42.982Z,56.92
2019-01-12T02:28:14.583Z,56.82
2019-01-12T02:28:46.178Z,56.98
2019-01-12T02:29:17.775Z,56.94
2019-01-12T02:29:49.355Z,56.89
2019-01-12T02:30:20.974Z,56.81
2019-01-12T02:30:52.580Z,56.72
2019-01-12T02:31:24.164Z,56.61
2019-01-12T02:31:55.762Z,56.89
2019-01-12T02:32:27.359Z,56.74
2019-01-12T02:32:58.951Z,56.83
2019-01-12T02:33:30.528Z,56.75
2019-01-12T02:34:02.128Z,56.82
2019-01-12T02:34:33.726Z,56.88
2019-01-12T02:35:05.328Z,56.79
2019-01-12T02:35:36.982Z,56.88
2019-01-12T02:36:08.578Z,56.91
2019-01-12T02:36:40.183Z,56.88
2019-01-12T02:37:11.793Z,56.89
2019-01-12T02:37:43.377Z,56.98
2019-01-12T02:38:14.970Z,56.98
2019-01-12T02:38:46.562Z,57.11
2019-01-12T02:39:18.142Z,57.09
2019-01-12T02:39:49.738Z,57.08
2019-01-12T02:40:21.351Z,57.20
2019-01-12T02:40:52.974Z,57.19
2019-01-12T02:41:24.575Z,57.09
2019-01-12T02:41:56.166Z,57.18
2019-01-12T02:42:27.748Z,57.16
2019-01-12T02:42:59.328Z,56.96
2019-01-12T02:43:30.921Z,56.99
2019-01-12T02:44:02.519Z,56.76
2019-01-12T02:44:34.109Z,56.53
2019-01-12T02:45:05.707Z,57.02
2019-01-12T02:45:37.325Z,57.01
2019-01-12T02:46:08.914Z,56.97
2019-01-12T02:46:40.496Z,57.09
2019-01-12T02:47:12.094Z,57.07
2019-01-12T02:47:43.696Z,57.04
2019-01-12T02:48:15.294Z,56.96
2019-01-12T02:48:46.885Z,56.96
2019-01-12T02:49:18.523Z,56.96
2019-01-12T02:49:50.144Z,56.82
2019-01-12T02:50:21.752Z,56.94
2019-01-12T02:50:53.389Z,56.91
2019-01-12T02:51:24.991Z,56.87
2019-01-12T02:51:56.591Z,56.75
2019-01-12T02:52:28.186Z,56.80
2019-01-12T02:52:59.791Z,56.85
2019-01-12T02:53:31.394Z,56.80
2019-01-12T02:54:02.988Z,56.84
2019-01-12T02:54:34.605Z,56.66
2019-01-12T02:55:08.918Z,56.78
2019-01-12T02:55:37.883Z,56.74
2019-01-12T02:56:09.478Z,56.77
2019-01-12T02:56:41.060Z,56.60
2019-01-12T02:57:12.655Z,56.54
2019-01-12T02:57:44.255Z,56.56
2019-01-12T02:58:15.859Z,56.48
2019-01-12T02:58:47.454Z,56.53
2019-01-12T02:59:19.041Z,56.47
2019-01-12T02:59:50.648Z,56.42
2019-01-12T03:00:22.302Z,56.40
2019-01-12T03:00:53.917Z,56.47
2019-01-12T03:01:25.510Z,56.34
2019-01-12T03:01:57.101Z,56.22
2019-01-12T03:02:28.714Z,56.17
2019-01-12T03:03:00.296Z,56.28
2019-01-12T03:03:31.900Z,56.44
2019-01-12T03:04:03.528Z,56.22
2019-01-12T03:04:35.132Z,56.35
2019-01-12T03:05:06.739Z,56.18
2019-01-12T03:05:38.338Z,56.02
2019-01-12T03:06:09.944Z,56.04
2019-01-12T03:06:41.537Z,55.96
2019-01-12T03:07:13.140Z,55.96
2019-01-12T03:07:44.741Z,55.97
2019-01-12T03:08:16.329Z,56.01
2019-01-12T03:08:47.931Z,55.83
2019-01-12T03:09:19.521Z,55.92
2019-01-12T03:09:51.129Z,55.86
2019-01-12T03:10:22.733Z,55.70
2019-01-12T03:10:54.353Z,55.77
2019-01-12T03:11:25.947Z,55.81
2019-01-12T03:11:57.528Z,55.71
2019-01-12T03:12:29.119Z,55.64
2019-01-12T03:13:00.713Z,55.63
2019-01-12T03:13:32.305Z,55.90
2019-01-12T03:14:03.894Z,55.54
2019-01-12T03:14:35.486Z,55.62
2019-01-12T03:15:07.522Z,55.71
2019-01-12T03:15:38.730Z,55.62
2019-01-12T03:16:10.337Z,55.65
2019-01-12T03:16:41.948Z,55.61
2019-01-12T03:17:13.546Z,55.55
2019-01-12T03:17:45.144Z,55.76
2019-01-12T03:18:16.752Z,55.64
2019-01-12T03:18:48.366Z,55.63
2019-01-12T03:19:19.978Z,55.78
2019-01-12T03:19:51.577Z,55.73
2019-01-12T03:20:23.772Z,55.69
2019-01-12T03:20:55.394Z,55.88
2019-01-12T03:21:27.011Z,56.04
2019-01-12T03:21:58.613Z,55.91
2019-01-12T03:22:30.208Z,56.17
2019-01-12T03:23:01.789Z,56.29
2019-01-12T03:23:33.382Z,56.45
2019-01-12T03:24:04.974Z,56.60
2019-01-12T03:24:36.556Z,56.60
2019-01-12T03:25:08.174Z,56.61
2019-01-12T03:25:39.788Z,56.58
2019-01-12T03:26:11.405Z,56.73
2019-01-12T03:26:43.013Z,56.55
2019-01-12T03:27:14.605Z,56.50
2019-01-12T03:27:46.188Z,56.66
2019-01-12T03:28:17.768Z,56.83
2019-01-12T03:28:49.372Z,56.78
2019-01-12T03:29:20.988Z,56.58
2019-01-12T03:29:52.596Z,56.95
2019-01-12T03:30:24.193Z,56.89
2019-01-12T03:30:55.776Z,56.92
2019-01-12T03:31:27.399Z,56.97
2019-01-12T03:31:59.008Z,57.00
2019-01-12T03:32:30.611Z,56.96
2019-01-12T03:33:02.216Z,57.16
2019-01-12T03:33:33.818Z,57.10
2019-01-12T03:34:05.429Z,57.19
2019-01-12T03:34:37.031Z,57.11
2019-01-12T03:35:08.633Z,57.14
2019-01-12T03:35:40.230Z,57.09
2019-01-12T03:36:11.859Z,57.30
2019-01-12T03:36:43.451Z,57.30
2019-01-12T03:37:15.042Z,57.26
2019-01-12T03:37:46.638Z,57.42
2019-01-12T03:38:18.230Z,57.45
2019-01-12T03:38:49.831Z,57.29
2019-01-12T03:39:21.427Z,57.56
2019-01-12T03:39:53.031Z,57.50
2019-01-12T03:40:24.642Z,57.45
2019-01-12T03:40:56.244Z,57.52
2019-01-12T03:41:27.865Z,57.63
2019-01-12T03:41:59.463Z,57.62
2019-01-12T03:42:31.054Z,57.62
2019-01-12T03:43:02.659Z,57.71
2019-01-12T03:43:34.258Z,57.31
2019-01-12T03:44:05.854Z,57.69
2019-01-12T03:44:37.460Z,57.45
2019-01-12T03:45:09.063Z,57.55
2019-01-12T03:45:40.663Z,57.47
2019-01-12T03:46:12.296Z,57.39
2019-01-12T03:46:43.917Z,57.45
2019-01-12T03:47:15.514Z,57.40
2019-01-12T03:47:47.097Z,57.52
2019-01-12T03:48:18.689Z,57.61
2019-01-12T03:48:50.295Z,57.66
2019-01-12T03:49:21.895Z,57.66
2019-01-12T03:49:53.475Z,57.68
2019-01-12T03:50:25.099Z,57.72
2019-01-12T03:50:56.703Z,57.66
2019-01-12T03:51:28.333Z,57.64
2019-01-12T03:51:59.916Z,57.77
2019-01-12T03:52:31.524Z,57.99
2019-01-12T03:53:03.121Z,58.01
2019-01-12T03:53:34.717Z,57.79
2019-01-12T03:54:06.319Z,57.88
2019-01-12T03:54:37.903Z,57.56
2019-01-12T03:55:09.512Z,57.66
2019-01-12T03:55:41.106Z,57.54
2019-01-12T03:56:12.701Z,57.63
2019-01-12T03:56:44.328Z,57.57
2019-01-12T03:57:15.935Z,57.58
2019-01-12T03:57:47.535Z,57.65
2019-01-12T03:58:19.126Z,57.44
2019-01-12T03:58:50.718Z,57.57
2019-01-12T03:59:22.299Z,57.42
2019-01-12T03:59:53.894Z,57.21
2019-01-12T04:00:25.502Z,57.34
2019-01-12T04:00:57.098Z,57.29
2019-01-12T04:01:28.718Z,57.39
2019-01-12T04:02:00.314Z,57.36
2019-01-12T04:02:31.916Z,57.39
2019-01-12T04:03:03.520Z,57.31
2019-01-12T04:03:35.107Z,57.38
2019-01-12T04:04:06.698Z,57.33
2019-01-12T04:04:38.299Z,57.26
2019-01-12T04:05:09.909Z,57.35
2019-01-12T04:05:41.505Z,57.21
2019-01-12T04:06:13.097Z,57.20
2019-01-12T04:06:44.715Z,57.20
2019-01-12T04:07:16.315Z,57.18
2019-01-12T04:07:47.920Z,57.04
2019-01-12T04:08:19.518Z,57.15
2019-01-12T04:08:51.100Z,57.06
2019-01-12T04:09:22.693Z,57.11
2019-01-12T04:09:54.282Z,57.12
2019-01-12T04:10:25.874Z,57.15
2019-01-12T04:10:57.475Z,57.05
2019-01-12T04:11:29.111Z,56.99
2019-01-12T04:12:00.713Z,57.21
2019-01-12T04:12:32.313Z,57.16
2019-01-12T04:13:03.907Z,57.17
2019-01-12T04:13:35.507Z,57.26
2019-01-12T04:14:07.102Z,57.06
2019-01-12T04:14:38.679Z,57.23
2019-01-12T04:15:10.270Z,57.09
2019-01-12T04:15:41.862Z,57.22
2019-01-12T04:16:13.458Z,57.15
2019-01-12T04:16:45.064Z,57.24
2019-01-12T04:17:16.644Z,57.17
2019-01-12T04:17:48.235Z,57.22
2019-01-12T04:18:19.830Z,57.28
2019-01-12T04:18:51.440Z,57.19
2019-01-12T04:19:23.033Z,56.96
2019-01-12T04:19:54.635Z,57.33
2019-01-12T04:20:26.235Z,57.13
2019-01-12T04:20:57.840Z,57.06
2019-01-12T04:21:29.438Z,57.30
2019-01-12T04:22:01.045Z,57.34
2019-01-12T04:22:32.634Z,57.05
2019-01-12T04:23:04.291Z,57.06
2019-01-12T04:23:35.902Z,57.09
2019-01-12T04:24:07.517Z,57.15
2019-01-12T04:24:39.104Z,57.16
2019-01-12T04:25:10.694Z,57.07
2019-01-12T04:25:42.292Z,57.12
2019-01-12T04:26:13.906Z,57.16
2019-01-12T04:26:45.516Z,57.18
2019-01-12T04:27:17.109Z,57.19
2019-01-12T04:27:48.693Z,57.14
2019-01-12T04:28:20.271Z,57.13
2019-01-12T04:28:51.880Z,57.29
2019-01-12T04:29:23.475Z,57.09
2019-01-12T04:29:55.056Z,57.15
2019-01-12T04:30:26.645Z,57.12
2019-01-12T04:30:58.238Z,57.09
2019-01-12T04:31:29.840Z,57.15
2019-01-12T04:32:01.457Z,57.16
2019-01-12T04:32:33.064Z,57.15
2019-01-12T04:33:04.669Z,57.16
2019-01-12T04:33:36.274Z,57.13
2019-01-12T04:34:07.870Z,57.07
2019-01-12T04:34:39.471Z,57.11
2019-01-12T04:35:11.071Z,57.09
2019-01-12T04:35:42.666Z,57.09
2019-01-12T04:36:14.280Z,57.08
2019-01-12T04:36:45.902Z,57.03
2019-01-12T04:37:17.523Z,57.05
2019-01-12T04:37:49.121Z,57.05
2019-01-12T04:38:20.718Z,57.05
2019-01-12T04:38:52.319Z,57.06
2019-01-12T04:39:23.929Z,57.04
2019-01-12T04:39:55.545Z,56.98
2019-01-12T04:40:27.152Z,57.02
2019-01-12T04:40:58.761Z,57.00
2019-01-12T04:41:30.359Z,56.85
2019-01-12T04:42:01.987Z,56.93
2019-01-12T04:42:33.586Z,57.00
2019-01-12T04:43:05.182Z,56.96
2019-01-12T04:43:36.774Z,56.99
2019-01-12T04:44:08.351Z,57.17
2019-01-12T04:44:39.941Z,57.06
2019-01-12T04:45:11.530Z,57.15
2019-01-12T04:45:43.125Z,57.05
2019-01-12T04:46:14.713Z,57.12
2019-01-12T04:46:46.291Z,57.10
2019-01-12T04:47:17.926Z,57.13
2019-01-12T04:47:49.519Z,57.14
2019-01-12T04:48:21.132Z,57.14
2019-01-12T04:48:52.740Z,57.05
2019-01-12T04:49:24.320Z,57.14
2019-01-12T04:49:55.919Z,57.06
2019-01-12T04:50:27.514Z,57.05
2019-01-12T04:50:59.126Z,57.08
2019-01-12T04:51:30.736Z,56.99
2019-01-12T04:52:02.374Z,57.01
2019-01-12T04:52:33.969Z,57.00
2019-01-12T04:53:05.580Z,57.00
2019-01-12T04:53:37.163Z,56.97
2019-01-12T04:54:08.766Z,57.06
2019-01-12T04:54:40.349Z,56.97
2019-01-12T04:55:11.954Z,57.00
2019-01-12T04:55:43.556Z,57.06
2019-01-12T04:56:15.136Z,56.97
2019-01-12T04:56:46.738Z,57.07
2019-01-12T04:57:18.354Z,57.20
2019-01-12T04:57:49.956Z,57.25
2019-01-12T04:58:21.543Z,57.32
2019-01-12T04:58:53.148Z,57.40
2019-01-12T04:59:24.736Z,57.55
2019-01-12T04:59:56.344Z,57.60
2019-01-12T05:00:27.949Z,57.61
2019-01-12T05:00:59.546Z,57.74
2019-01-12T05:01:31.142Z,57.66
2019-01-12T05:02:02.762Z,57.74
2019-01-12T05:02:34.388Z,57.66
2019-01-12T05:03:05.992Z,57.55
2019-01-12T05:03:37.590Z,57.76
2019-01-12T05:04:09.205Z,57.79
2019-01-12T05:04:40.812Z,57.80
2019-01-12T05:05:12.422Z,57.80
2019-01-12T05:05:44.017Z,57.81
2019-01-12T05:06:15.614Z,58.00
2019-01-12T05:06:47.205Z,58.10
2019-01-12T05:07:18.825Z,58.13
2019-01-12T05:07:50.418Z,58.30
2019-01-12T05:08:22.013Z,58.19
2019-01-12T05:08:53.598Z,58.24
2019-01-12T05:09:25.214Z,58.28
2019-01-12T05:09:56.806Z,58.28
2019-01-12T05:10:28.418Z,58.11
2019-01-12T05:11:00.032Z,58.31
2019-01-12T05:11:31.646Z,58.39
2019-01-12T05:12:03.240Z,58.45
2019-01-12T05:12:34.848Z,58.54
2019-01-12T05:13:06.437Z,58.49
2019-01-12T05:13:38.029Z,58.63
2019-01-12T05:14:09.631Z,58.70
2019-01-12T05:14:41.231Z,58.87
2019-01-12T05:15:12.840Z,58.97
2019-01-12T05:15:44.434Z,58.81
2019-01-12T05:16:16.039Z,58.85
2019-01-12T05:16:47.620Z,59.04
2019-01-12T05:17:19.240Z,59.16
2019-01-12T05:17:50.843Z,58.99
2019-01-12T05:18:22.455Z,59.07
2019-01-12T05:18:54.068Z,59.08
2019-01-12T05:19:25.683Z,59.01
2019-01-12T05:19:57.285Z,59.04
2019-01-12T05:20:28.881Z,59.43
2019-01-12T05:21:00.476Z,59.12
2019-01-12T05:21:32.070Z,59.14
2019-01-12T05:22:03.666Z,59.12
2019-01-12T05:22:35.290Z,59.09
2019-01-12T05:23:06.888Z,59.28
2019-01-12T05:23:38.518Z,59.08
2019-01-12T05:24:10.124Z,59.08
2019-01-12T05:24:41.731Z,59.27
2019-01-12T05:25:13.316Z,59.27
2019-01-12T05:25:49.217Z,59.34
2019-01-12T05:26:16.567Z,59.24
2019-01-12T05:26:48.177Z,59.35
2019-01-12T05:27:19.799Z,59.44
2019-01-12T05:27:51.432Z,59.37
2019-01-12T05:28:23.041Z,59.60
2019-01-12T05:28:54.648Z,59.45
2019-01-12T05:29:26.255Z,59.49
2019-01-12T05:29:57.852Z,59.59
2019-01-12T05:30:29.465Z,59.54
2019-01-12T05:31:01.072Z,59.56
2019-01-12T05:31:32.668Z,59.71
2019-01-12T05:32:04.278Z,59.82
2019-01-12T05:32:35.906Z,59.52
2019-01-12T05:33:07.490Z,59.67
2019-01-12T05:33:39.083Z,59.71
2019-01-12T05:34:10.660Z,59.52
2019-01-12T05:34:42.253Z,59.63
2019-01-12T05:35:13.845Z,59.50
2019-01-12T05:35:45.438Z,59.50
2019-01-12T05:36:17.020Z,59.37
2019-01-12T05:36:48.604Z,59.46
2019-01-12T05:37:20.204Z,59.31
2019-01-12T05:37:51.822Z,59.18
2019-01-12T05:38:23.405Z,59.10
2019-01-12T05:38:55.013Z,59.42
2019-01-12T05:39:26.595Z,59.14
2019-01-12T05:39:58.176Z,59.11
2019-01-12T05:40:29.756Z,58.97
2019-01-12T05:41:01.360Z,58.90
2019-01-12T05:41:33.001Z,58.99
2019-01-12T05:42:04.598Z,59.07
2019-01-12T05:42:36.214Z,59.02
2019-01-12T05:43:07.807Z,58.96
2019-01-12T05:43:39.411Z,58.99
2019-01-12T05:44:11.015Z,59.02
2019-01-12T05:44:43.207Z,58.80
2019-01-12T05:45:14.815Z,58.87
2019-01-12T05:45:46.410Z,58.98
2019-01-12T05:46:18.007Z,58.94
2019-01-12T05:46:49.611Z,58.98
2019-01-12T05:47:21.215Z,58.88
2019-01-12T05:47:52.843Z,58.79
2019-01-12T05:48:24.457Z,58.96
2019-01-12T05:48:56.051Z,58.88
2019-01-12T05:49:27.649Z,59.08
2019-01-12T05:49:59.260Z,58.73
2019-01-12T05:50:30.854Z,58.83
2019-01-12T05:51:02.438Z,58.82
2019-01-12T05:51:34.035Z,58.83
2019-01-12T05:52:05.640Z,58.82
2019-01-12T05:52:37.257Z,58.92
2019-01-12T05:53:08.859Z,58.65
2019-01-12T05:53:40.447Z,58.86
2019-01-12T05:54:12.048Z,58.63
2019-01-12T05:54:43.646Z,58.78
2019-01-12T05:55:15.247Z,58.74
2019-01-12T05:55:46.836Z,58.74
2019-01-12T05:56:18.441Z,58.61
2019-01-12T05:56:50.052Z,58.58
2019-01-12T05:57:21.664Z,58.57
2019-01-12T05:57:53.286Z,58.60
2019-01-12T05:58:24.881Z,58.57
2019-01-12T05:58:56.473Z,58.60
2019-01-12T05:59:28.071Z,58.57
2019-01-12T05:59:59.667Z,58.58
2019-01-12T06:00:31.271Z,58.57
2019-01-12T06:01:02.874Z,58.62
2019-01-12T06:01:34.468Z,58.50
2019-01-12T06:02:06.083Z,58.57
2019-01-12T06:02:37.678Z,58.54
2019-01-12T06:03:09.272Z,59.17
2019-01-12T06:03:40.880Z,59.01
2019-01-12T06:04:12.483Z,58.66
2019-01-12T06:04:44.062Z,58.82
2019-01-12T06:05:15.661Z,58.64
2019-01-12T06:05:47.265Z,58.78
2019-01-12T06:06:18.863Z,58.65
2019-01-12T06:06:50.499Z,58.96
2019-01-12T06:07:22.101Z,58.92
2019-01-12T06:07:53.724Z,58.74
2019-01-12T06:08:25.329Z,59.03
2019-01-12T06:08:56.925Z,59.03
2019-01-12T06:09:28.528Z,59.16
2019-01-12T06:10:00.170Z,58.78
2019-01-12T06:10:31.758Z,58.52
2019-01-12T06:11:03.368Z,57.71
2019-01-12T06:11:34.977Z,57.90
2019-01-12T06:12:06.580Z,57.64
2019-01-12T06:12:38.177Z,56.93
2019-01-12T06:13:09.798Z,56.15
2019-01-12T06:13:41.394Z,55.98
2019-01-12T06:14:12.989Z,55.59
2019-01-12T06:14:44.581Z,55.23
2019-01-12T06:15:16.170Z,54.56
2019-01-12T06:15:47.761Z,54.89
2019-01-12T06:16:19.340Z,55.08
2019-01-12T06:16:50.930Z,54.77
2019-01-12T06:17:22.536Z,55.15
2019-01-12T06:17:54.130Z,54.78
2019-01-12T06:18:25.754Z,54.89
2019-01-12T06:18:57.352Z,55.07
2019-01-12T06:19:29.029Z,55.48
2019-01-12T06:20:00.622Z,55.43
2019-01-12T06:20:32.219Z,55.44
2019-01-12T06:21:03.824Z,55.33
2019-01-12T06:21:35.433Z,55.47
2019-01-12T06:22:07.025Z,55.57
2019-01-12T06:22:38.617Z,55.64
2019-01-12T06:23:10.248Z,55.52
2019-01-12T06:23:41.842Z,55.62
2019-01-12T06:24:13.433Z,55.58
2019-01-12T06:24:45.040Z,55.88
2019-01-12T06:25:16.675Z,55.71
2019-01-12T06:25:48.340Z,55.87
2019-01-12T06:26:19.937Z,55.86
2019-01-12T06:26:51.530Z,55.77
2019-01-12T06:27:23.121Z,55.85
2019-01-12T06:27:54.724Z,55.85
2019-01-12T06:28:26.352Z,55.85
2019-01-12T06:28:57.964Z,55.85
2019-01-12T06:29:29.557Z,56.06
2019-01-12T06:30:01.160Z,56.19
2019-01-12T06:30:32.743Z,56.43
2019-01-12T06:31:04.352Z,56.23
2019-01-12T06:31:35.946Z,56.30
2019-01-12T06:32:07.538Z,56.17
2019-01-12T06:32:39.148Z,56.29
2019-01-12T06:33:10.786Z,56.26
2019-01-12T06:33:42.368Z,56.29
2019-01-12T06:34:13.957Z,56.54
2019-01-12T06:34:45.551Z,56.45
2019-01-12T06:35:17.159Z,56.40
2019-01-12T06:35:48.740Z,56.38
2019-01-12T06:36:20.334Z,56.29
2019-01-12T06:36:51.927Z,56.38
2019-01-12T06:37:23.522Z,56.43
2019-01-12T06:37:55.113Z,56.34
2019-01-12T06:38:26.738Z,56.41
2019-01-12T06:38:58.329Z,56.35
2019-01-12T06:39:29.937Z,56.33
2019-01-12T06:40:01.531Z,56.43
2019-01-12T06:40:33.124Z,56.44
2019-01-12T06:41:04.717Z,56.38
2019-01-12T06:41:36.310Z,56.56
2019-01-12T06:42:07.907Z,56.74
2019-01-12T06:42:39.508Z,56.81
2019-01-12T06:43:11.102Z,56.83
2019-01-12T06:43:42.728Z,56.76
2019-01-12T06:44:14.326Z,56.88
2019-01-12T06:44:45.928Z,57.02
2019-01-12T06:45:17.534Z,57.02
2019-01-12T06:45:49.140Z,57.04
2019-01-12T06:46:20.738Z,57.08
2019-01-12T06:46:52.334Z,57.15